Rosedale, Maryland
Current Conditions -  °F | °C
As of 11:09 PM on Wednesday 28 Jan 2015 (Local Time) from KMTN Reporting Station
Clear Clear  
Wind Chill: 20°   Ceiling: Unl
Heat Index: 27°   Visibility: 10mi
Dew Point: 12°   Wind: 6mph
Humidity: 55%   Direction: 280°W
Pressure: 30.34"   Gusts: NA
Location:  39.34°N, 76.5°W
Report Text: KMTN 290409Z AUTO 28005KT 10SM CLR M03/M11 A3034 RMK AO2
Loading
Personal Weather Stations






























Interactive Weather Map New forecast layout! Learn more

10-Day Weather Forecast

Advertisements
Track Severe Weather on mobile